createdAt,value
2023-03-24T00:00:28.918Z,16.95
2023-03-24T00:02:37.571Z,16.94
2023-03-24T00:04:42.974Z,16.92
2023-03-24T00:06:44.815Z,16.90
2023-03-24T00:08:48.276Z,16.89
2023-03-24T00:10:51.102Z,16.89
2023-03-24T00:12:52.689Z,16.88
2023-03-24T00:14:54.536Z,16.88
2023-03-24T00:16:59.888Z,16.87
2023-03-24T00:19:04.553Z,16.87
2023-03-24T00:21:09.105Z,16.87
2023-03-24T00:23:12.343Z,16.88
2023-03-24T00:25:14.735Z,16.87
2023-03-24T00:27:17.653Z,16.87
2023-03-24T00:29:20.101Z,16.88
2023-03-24T00:31:22.233Z,16.87
2023-03-24T00:33:24.216Z,16.88
2023-03-24T00:35:29.734Z,16.88
2023-03-24T00:37:31.377Z,16.87
2023-03-24T00:39:34.512Z,16.88
2023-03-24T00:41:36.803Z,16.88
2023-03-24T00:43:38.689Z,16.88
2023-03-24T00:45:46.236Z,16.85
2023-03-24T00:47:49.987Z,16.86
2023-03-24T00:49:54.294Z,16.87
2023-03-24T00:51:59.370Z,16.87
2023-03-24T00:54:01.914Z,16.86
2023-03-24T00:56:05.595Z,16.85
2023-03-24T01:00:26.608Z,16.86
2023-03-24T01:02:28.860Z,16.87
2023-03-24T01:04:30.746Z,16.87
2023-03-24T01:06:32.733Z,16.86
2023-03-24T01:08:36.806Z,16.88
2023-03-24T01:10:53.103Z,16.87
2023-03-24T01:13:01.024Z,16.87
2023-03-24T01:15:07.096Z,16.87
2023-03-24T01:17:08.751Z,16.89
2023-03-24T01:19:10.633Z,16.89
2023-03-24T01:21:13.028Z,16.88
2023-03-24T01:23:19.885Z,16.89
2023-03-24T01:25:27.670Z,16.89
2023-03-24T01:27:29.413Z,16.89
2023-03-24T01:29:31.198Z,16.90
2023-03-24T01:31:33.223Z,16.87
2023-03-24T01:33:36.765Z,16.89
2023-03-24T01:35:38.926Z,16.88
2023-03-24T01:37:41.114Z,16.89
2023-03-24T01:39:42.554Z,16.92
2023-03-24T01:41:44.017Z,16.91
2023-03-24T01:43:46.048Z,16.91
2023-03-24T01:46:15.605Z,16.87
2023-03-24T01:48:35.637Z,16.86
2023-03-24T01:50:38.000Z,16.84
2023-03-24T01:52:42.557Z,16.84
2023-03-24T01:54:54.958Z,16.84
2023-03-24T01:57:33.710Z,16.81
2023-03-24T01:59:40.437Z,16.83
2023-03-24T02:01:54.468Z,16.80
2023-03-24T02:04:13.074Z,16.80
2023-03-24T02:06:15.782Z,16.79
2023-03-24T02:08:28.246Z,16.78
2023-03-24T02:10:33.153Z,16.78
2023-03-24T02:12:34.872Z,16.79
2023-03-24T02:14:38.917Z,16.78
2023-03-24T02:16:43.450Z,16.77
2023-03-24T02:19:12.771Z,16.73
2023-03-24T02:21:29.694Z,16.72
2023-03-24T02:24:01.872Z,16.71
2023-03-24T02:26:34.068Z,16.72
2023-03-24T02:28:53.557Z,16.70
2023-03-24T02:31:34.212Z,16.68
2023-03-24T02:33:47.644Z,16.66
2023-03-24T02:36:15.450Z,16.68
2023-03-24T02:38:41.234Z,16.64
2023-03-24T02:40:53.586Z,16.66
2023-03-24T02:43:43.180Z,16.65
2023-03-24T02:46:13.443Z,16.64
2023-03-24T02:48:27.491Z,16.63
2023-03-24T02:50:43.050Z,16.63
2023-03-24T02:52:53.283Z,16.62
2023-03-24T02:55:03.799Z,16.63
2023-03-24T02:57:28.405Z,16.61
2023-03-24T03:00:28.407Z,16.60
2023-03-24T03:03:00.189Z,16.60
2023-03-24T03:05:08.789Z,16.59
2023-03-24T03:07:12.715Z,16.61
2023-03-24T03:09:17.979Z,16.62
2023-03-24T03:11:24.085Z,16.62
2023-03-24T03:13:31.428Z,16.61
2023-03-24T03:15:38.639Z,16.61
2023-03-24T03:17:48.346Z,16.60
2023-03-24T03:20:07.330Z,16.61
2023-03-24T03:22:18.000Z,16.59
2023-03-24T03:24:47.314Z,16.59
2023-03-24T03:26:50.200Z,16.61
2023-03-24T03:28:58.093Z,16.59
2023-03-24T03:31:08.226Z,16.58
2023-03-24T03:33:18.081Z,16.59
2023-03-24T03:36:03.761Z,16.57
2023-03-24T03:38:20.254Z,16.56
2023-03-24T03:40:34.549Z,16.53
2023-03-24T03:42:44.364Z,16.55
2023-03-24T03:44:46.819Z,16.54
2023-03-24T03:46:48.568Z,16.55
2023-03-24T03:48:57.022Z,16.56
2023-03-24T03:51:12.453Z,16.56
2023-03-24T03:53:28.414Z,16.53
2023-03-24T03:55:31.143Z,16.54
2023-03-24T03:57:35.290Z,16.55
2023-03-24T03:59:43.407Z,16.54
2023-03-24T04:01:50.403Z,16.55
2023-03-24T04:04:43.320Z,16.53
2023-03-24T04:07:10.665Z,16.53
2023-03-24T04:09:31.164Z,16.51
2023-03-24T04:11:53.333Z,16.52
2023-03-24T04:14:29.441Z,16.51
2023-03-24T04:17:12.334Z,16.51
2023-03-24T04:19:26.134Z,16.51
2023-03-24T04:21:33.607Z,16.49
2023-03-24T04:23:46.346Z,16.52
2023-03-24T04:26:15.054Z,16.51
2023-03-24T04:28:26.608Z,16.53
2023-03-24T04:30:43.122Z,16.53
2023-03-24T04:32:53.250Z,16.56
2023-03-24T04:35:06.805Z,16.56
2023-03-24T04:37:38.800Z,16.55
2023-03-24T04:39:53.950Z,16.55
2023-03-24T04:42:02.778Z,16.56
2023-03-24T04:44:07.914Z,16.57
2023-03-24T04:46:19.135Z,16.59
2023-03-24T04:48:31.732Z,16.58
2023-03-24T04:51:00.191Z,16.58
2023-03-24T04:53:08.663Z,16.60
2023-03-24T04:55:29.173Z,16.59
2023-03-24T04:57:30.831Z,16.60
2023-03-24T04:59:45.971Z,16.59
2023-03-24T05:01:52.006Z,16.59
2023-03-24T05:04:02.194Z,16.59
2023-03-24T05:06:10.525Z,16.60
2023-03-24T05:08:16.432Z,16.60
2023-03-24T05:10:26.639Z,16.61
2023-03-24T05:12:34.324Z,16.59
2023-03-24T05:15:00.315Z,16.60
2023-03-24T05:17:01.974Z,16.61
2023-03-24T05:19:04.549Z,16.61
2023-03-24T05:21:07.837Z,16.62
2023-03-24T05:23:14.161Z,16.64
2023-03-24T05:25:19.125Z,16.64
2023-03-24T05:27:23.490Z,16.64
2023-03-24T05:29:27.918Z,16.64
2023-03-24T05:31:30.634Z,16.67
2023-03-24T05:33:39.732Z,16.67
2023-03-24T05:35:41.574Z,16.66
2023-03-24T05:37:43.910Z,16.66
2023-03-24T05:39:45.873Z,16.66
2023-03-24T05:42:04.727Z,16.66
2023-03-24T05:44:06.173Z,16.69
2023-03-24T05:46:08.207Z,16.71
2023-03-24T05:48:10.148Z,16.69
2023-03-24T05:50:39.027Z,16.71
2023-03-24T05:52:41.406Z,16.72
2023-03-24T05:55:05.625Z,16.71
2023-03-24T05:57:10.636Z,16.71
2023-03-24T05:59:30.945Z,16.72
2023-03-24T06:01:48.325Z,16.73
2023-03-24T06:04:02.065Z,16.70
2023-03-24T06:06:04.138Z,16.71
2023-03-24T06:08:05.666Z,16.73
2023-03-24T06:10:11.483Z,16.72
2023-03-24T06:12:21.641Z,16.73
2023-03-24T06:14:29.341Z,16.73
2023-03-24T06:16:39.940Z,16.74
2023-03-24T06:18:52.369Z,16.77
2023-03-24T06:21:13.860Z,16.77
2023-03-24T06:23:19.628Z,16.76
2023-03-24T06:25:35.720Z,16.80
2023-03-24T06:27:49.181Z,16.80
2023-03-24T06:29:59.908Z,16.82
2023-03-24T06:32:03.559Z,16.81
2023-03-24T06:34:07.929Z,16.83
2023-03-24T06:36:11.566Z,16.84
2023-03-24T06:38:14.822Z,16.87
2023-03-24T06:40:18.495Z,16.88
2023-03-24T06:42:27.984Z,16.90
2023-03-24T06:44:29.921Z,16.92
2023-03-24T06:46:31.581Z,16.95
2023-03-24T06:48:33.683Z,16.96
2023-03-24T06:50:42.170Z,16.97
2023-03-24T06:52:45.826Z,17.00
2023-03-24T06:54:50.110Z,17.00
2023-03-24T06:56:51.753Z,17.03
2023-03-24T06:58:54.499Z,17.04
2023-03-24T07:01:08.652Z,17.05
2023-03-24T07:03:31.727Z,17.05
2023-03-24T07:05:51.971Z,17.06
2023-03-24T07:08:29.755Z,17.08
2023-03-24T07:10:19.664Z,17.09
2023-03-24T07:12:21.194Z,17.10
2023-03-24T07:14:26.287Z,17.12
2023-03-24T07:16:29.316Z,17.14
2023-03-24T07:18:50.924Z,17.15
2023-03-24T07:20:52.864Z,17.16
2023-03-24T07:22:58.437Z,17.16
2023-03-24T07:25:04.462Z,17.15
2023-03-24T07:27:16.021Z,17.15
2023-03-24T07:29:17.715Z,17.17
2023-03-24T07:31:39.458Z,17.17
2023-03-24T07:33:44.070Z,17.19
2023-03-24T07:35:49.035Z,17.20
2023-03-24T07:37:50.987Z,17.21
2023-03-24T07:39:52.831Z,17.22
2023-03-24T07:41:54.750Z,17.24
2023-03-24T07:44:07.092Z,17.23
2023-03-24T07:46:12.345Z,17.24
2023-03-24T07:48:14.197Z,17.24
2023-03-24T07:50:16.011Z,17.24
2023-03-24T07:52:18.292Z,17.25
2023-03-24T07:54:24.992Z,17.24
2023-03-24T07:56:27.821Z,17.25
2023-03-24T07:58:32.087Z,17.24
2023-03-24T08:00:56.604Z,17.25
2023-03-24T08:03:05.859Z,17.27
2023-03-24T08:05:34.253Z,17.27
2023-03-24T08:08:14.537Z,17.28
2023-03-24T08:10:16.706Z,17.29
2023-03-24T08:12:20.669Z,17.31
2023-03-24T08:14:23.741Z,17.32
2023-03-24T08:16:26.657Z,17.35
2023-03-24T08:18:28.202Z,17.35
2023-03-24T08:20:32.104Z,17.36
2023-03-24T08:22:33.817Z,17.37
2023-03-24T08:24:36.369Z,17.37
2023-03-24T08:26:40.102Z,17.39
2023-03-24T08:28:41.641Z,17.40
2023-03-24T08:30:43.772Z,17.43
2023-03-24T08:32:47.830Z,17.43
2023-03-24T08:34:49.465Z,17.46
2023-03-24T08:36:51.231Z,17.46
2023-03-24T08:38:55.510Z,17.46
2023-03-24T08:41:02.033Z,17.48
2023-03-24T08:43:08.559Z,17.48
2023-03-24T08:45:12.531Z,17.50
2023-03-24T08:47:16.325Z,17.52
2023-03-24T08:49:17.786Z,17.54
2023-03-24T08:51:19.286Z,17.56
2023-03-24T08:53:21.692Z,17.58
2023-03-24T08:55:23.650Z,17.59
2023-03-24T08:57:25.471Z,17.61
2023-03-24T08:59:26.997Z,17.64
2023-03-24T09:01:28.840Z,17.67
2023-03-24T09:03:30.896Z,17.70
2023-03-24T09:05:44.144Z,17.71
2023-03-24T09:07:55.457Z,17.72
2023-03-24T09:09:56.961Z,17.75
2023-03-24T09:11:58.475Z,17.77
2023-03-24T09:14:00.152Z,17.79
2023-03-24T09:16:03.509Z,17.81
2023-03-24T09:18:06.821Z,17.84
2023-03-24T09:20:12.129Z,17.86
2023-03-24T09:22:13.721Z,17.88
2023-03-24T09:24:15.491Z,17.89
2023-03-24T09:26:17.395Z,17.92
2023-03-24T09:28:19.284Z,17.94
2023-03-24T09:30:20.863Z,17.94
2023-03-24T09:32:22.461Z,17.96
2023-03-24T09:34:24.897Z,17.97
2023-03-24T09:36:27.206Z,17.99
2023-03-24T09:38:29.251Z,18.00
2023-03-24T09:40:39.949Z,18.02
2023-03-24T09:42:41.736Z,18.06
2023-03-24T09:44:50.161Z,18.06
2023-03-24T09:46:58.054Z,18.11
2023-03-24T09:48:59.665Z,18.11
2023-03-24T09:51:07.187Z,18.13
2023-03-24T09:53:24.793Z,18.12
2023-03-24T09:55:28.924Z,18.14
2023-03-24T09:57:39.577Z,18.16
2023-03-24T09:59:41.193Z,18.19
2023-03-24T10:01:43.070Z,18.22
2023-03-24T10:03:46.203Z,18.27
2023-03-24T10:05:51.687Z,18.30
2023-03-24T10:07:59.907Z,18.34
2023-03-24T10:10:01.887Z,18.36
2023-03-24T10:12:35.644Z,18.36
2023-03-24T10:14:44.982Z,18.38
2023-03-24T10:16:56.358Z,18.43
2023-03-24T10:19:36.856Z,18.46
2023-03-24T10:21:42.792Z,18.52
2023-03-24T10:24:19.244Z,18.55
2023-03-24T10:26:32.607Z,18.60
2023-03-24T10:28:44.774Z,18.66
2023-03-24T10:30:49.836Z,18.68
2023-03-24T10:32:51.554Z,18.69
2023-03-24T10:34:57.718Z,18.73
2023-03-24T10:37:02.244Z,18.75
2023-03-24T10:39:18.305Z,18.77
2023-03-24T10:41:24.403Z,18.80
2023-03-24T10:43:27.146Z,18.79
2023-03-24T10:45:37.460Z,18.80
2023-03-24T10:47:39.749Z,18.81
2023-03-24T10:49:54.341Z,18.82
2023-03-24T10:52:03.581Z,18.82
2023-03-24T10:54:17.992Z,18.82
2023-03-24T10:56:47.848Z,18.83
2023-03-24T10:58:49.991Z,18.84
2023-03-24T11:00:52.202Z,18.85
2023-03-24T11:03:06.843Z,18.86
2023-03-24T11:05:23.494Z,18.89
2023-03-24T11:07:38.820Z,18.88
2023-03-24T11:09:43.106Z,18.90
2023-03-24T11:11:45.260Z,18.89
2023-03-24T11:13:57.273Z,18.89
2023-03-24T11:16:07.399Z,18.87
2023-03-24T11:18:12.330Z,18.89
2023-03-24T11:20:26.435Z,18.88
2023-03-24T11:22:28.187Z,18.89
2023-03-24T11:24:30.219Z,18.91
2023-03-24T11:26:35.305Z,18.88
2023-03-24T11:28:43.313Z,18.89
2023-03-24T11:30:55.558Z,18.87
2023-03-24T11:33:02.332Z,18.89
2023-03-24T11:35:16.577Z,18.89
2023-03-24T11:37:22.413Z,18.92
2023-03-24T11:39:26.411Z,18.96
2023-03-24T11:41:28.197Z,18.99
2023-03-24T11:43:29.880Z,19.01
2023-03-24T11:45:37.132Z,19.05
2023-03-24T11:47:38.778Z,19.08
2023-03-24T11:49:46.859Z,19.09
2023-03-24T11:51:53.013Z,19.10
2023-03-24T11:53:56.415Z,19.13
2023-03-24T11:56:10.554Z,19.16
2023-03-24T11:58:27.867Z,19.15
2023-03-24T12:00:42.131Z,19.17
2023-03-24T12:03:08.648Z,19.17
2023-03-24T12:05:38.360Z,19.18
2023-03-24T12:07:58.834Z,19.18
2023-03-24T12:10:33.942Z,19.18
2023-03-24T12:12:51.567Z,19.19
2023-03-24T12:15:28.096Z,19.20
2023-03-24T12:17:53.825Z,19.20
2023-03-24T12:20:10.478Z,19.20
2023-03-24T12:22:24.484Z,19.23
2023-03-24T12:24:48.342Z,19.22
2023-03-24T12:26:54.064Z,19.21
2023-03-24T12:29:37.528Z,19.21
2023-03-24T12:32:00.855Z,19.16
2023-03-24T12:34:28.181Z,19.14
2023-03-24T12:36:59.102Z,19.15
2023-03-24T12:39:12.574Z,19.13
2023-03-24T12:41:31.208Z,19.14
2023-03-24T12:44:17.392Z,19.14
2023-03-24T12:46:46.750Z,19.12
2023-03-24T12:49:33.272Z,19.08
2023-03-24T12:51:51.164Z,19.08
2023-03-24T12:54:12.694Z,19.10
2023-03-24T12:56:25.086Z,19.11
2023-03-24T12:58:46.821Z,19.10
2023-03-24T13:01:22.830Z,19.08
2023-03-24T13:03:33.529Z,19.06
2023-03-24T13:05:40.714Z,19.07
2023-03-24T13:07:44.049Z,19.04
2023-03-24T13:10:15.662Z,19.02
2023-03-24T13:12:22.394Z,18.99
2023-03-24T13:14:30.305Z,18.97
2023-03-24T13:16:35.517Z,18.97
2023-03-24T13:18:44.286Z,19.00
2023-03-24T13:20:53.204Z,19.05
2023-03-24T13:22:56.491Z,19.13
2023-03-24T13:24:58.296Z,19.18
2023-03-24T13:27:10.696Z,19.22
2023-03-24T13:29:45.573Z,19.26
2023-03-24T13:32:04.877Z,19.26
2023-03-24T13:34:22.286Z,19.28
2023-03-24T13:36:42.678Z,19.29
2023-03-24T13:38:52.288Z,19.32
2023-03-24T13:40:56.303Z,19.34
2023-03-24T13:43:10.959Z,19.31
2023-03-24T13:45:26.083Z,19.30
2023-03-24T13:47:47.177Z,19.28
2023-03-24T13:50:15.967Z,19.21
2023-03-24T13:52:28.183Z,19.17
2023-03-24T13:54:31.228Z,19.17
2023-03-24T13:57:01.788Z,19.11
2023-03-24T13:59:08.213Z,19.05
2023-03-24T14:01:09.978Z,19.00
2023-03-24T14:03:31.063Z,18.96
2023-03-24T14:06:00.220Z,18.90
2023-03-24T14:08:04.506Z,18.91
2023-03-24T14:10:20.681Z,18.86
2023-03-24T14:12:22.258Z,18.84
2023-03-24T14:14:26.198Z,18.83
2023-03-24T14:16:42.327Z,18.80
2023-03-24T14:18:44.158Z,18.80
2023-03-24T14:20:58.101Z,18.76
2023-03-24T14:23:05.807Z,18.74
2023-03-24T14:25:16.345Z,18.72
2023-03-24T14:27:40.908Z,18.73
2023-03-24T14:29:50.996Z,18.75
2023-03-24T14:32:06.983Z,18.76
2023-03-24T14:34:21.185Z,18.75
2023-03-24T14:36:40.461Z,18.75
2023-03-24T14:38:48.218Z,18.73
2023-03-24T14:40:59.421Z,18.72
2023-03-24T14:43:12.665Z,18.70
2023-03-24T14:45:52.371Z,18.71
2023-03-24T14:48:05.515Z,18.70
2023-03-24T14:50:21.986Z,18.68
2023-03-24T14:52:39.659Z,18.66
2023-03-24T14:54:50.479Z,18.66
2023-03-24T14:56:54.514Z,18.63
2023-03-24T14:59:05.601Z,18.61
2023-03-24T15:01:09.199Z,18.60
2023-03-24T15:03:24.169Z,18.57
2023-03-24T15:05:30.145Z,18.55
2023-03-24T15:07:31.676Z,18.54
2023-03-24T15:09:38.478Z,18.52
2023-03-24T15:11:41.844Z,18.49
2023-03-24T15:13:45.592Z,18.48
2023-03-24T15:15:47.925Z,18.45
2023-03-24T15:17:53.011Z,18.42
2023-03-24T15:19:55.171Z,18.41
2023-03-24T15:22:05.378Z,18.38
2023-03-24T15:24:22.151Z,18.38
2023-03-24T15:26:25.588Z,18.37
2023-03-24T15:28:29.656Z,18.39
2023-03-24T15:30:33.562Z,18.39
2023-03-24T15:32:39.090Z,18.37
2023-03-24T15:34:42.335Z,18.37
2023-03-24T15:36:45.700Z,18.37
2023-03-24T15:38:51.256Z,18.37
2023-03-24T15:41:09.524Z,18.36
2023-03-24T15:43:21.512Z,18.36
2023-03-24T15:45:32.072Z,18.35
2023-03-24T15:47:38.585Z,18.37
2023-03-24T15:49:54.092Z,18.38
2023-03-24T15:52:05.419Z,18.38
2023-03-24T15:54:23.052Z,18.36
2023-03-24T15:56:26.023Z,18.37
2023-03-24T15:58:32.102Z,18.36
2023-03-24T16:00:41.132Z,18.35
2023-03-24T16:02:47.557Z,18.33
2023-03-24T16:05:00.283Z,18.32
2023-03-24T16:07:23.867Z,18.31
2023-03-24T16:09:37.274Z,18.30
2023-03-24T16:11:39.044Z,18.31
2023-03-24T16:13:45.551Z,18.29
2023-03-24T16:15:56.062Z,18.29
2023-03-24T16:17:57.675Z,18.30
2023-03-24T16:20:08.945Z,18.27
2023-03-24T16:22:13.221Z,18.26
2023-03-24T16:24:14.847Z,18.25
2023-03-24T16:26:22.168Z,18.24
2023-03-24T16:28:25.152Z,18.21
2023-03-24T16:30:40.441Z,18.18
2023-03-24T16:32:42.011Z,18.15
2023-03-24T16:34:45.621Z,18.11
2023-03-24T16:36:51.818Z,18.10
2023-03-24T16:38:59.394Z,18.06
2023-03-24T16:41:00.984Z,18.04
2023-03-24T16:43:02.981Z,18.01
2023-03-24T16:45:04.862Z,17.99
2023-03-24T16:47:10.316Z,17.96
2023-03-24T16:49:15.322Z,17.92
2023-03-24T16:51:17.573Z,17.92
2023-03-24T16:53:19.536Z,17.89
2023-03-24T16:55:21.141Z,17.88
2023-03-24T16:57:22.673Z,17.86
2023-03-24T16:59:24.616Z,17.82
2023-03-24T17:01:35.640Z,17.79
2023-03-24T17:03:40.802Z,17.77
2023-03-24T17:05:48.554Z,17.75
2023-03-24T17:07:51.886Z,17.71
2023-03-24T17:09:53.388Z,17.70
2023-03-24T17:11:57.288Z,17.67
2023-03-24T17:14:04.455Z,17.63
2023-03-24T17:16:12.659Z,17.61
2023-03-24T17:18:17.551Z,17.58
2023-03-24T17:20:21.283Z,17.55
2023-03-24T17:22:27.234Z,17.53
2023-03-24T17:24:35.574Z,17.48
2023-03-24T17:26:38.359Z,17.47
2023-03-24T17:28:40.224Z,17.42
2023-03-24T17:30:42.922Z,17.39
2023-03-24T17:32:44.816Z,17.38
2023-03-24T17:34:46.841Z,17.36
2023-03-24T17:36:50.834Z,17.33
2023-03-24T17:38:55.678Z,17.30
2023-03-24T17:41:04.494Z,17.25
2023-03-24T17:43:05.980Z,17.23
2023-03-24T17:45:16.943Z,17.19
2023-03-24T17:47:18.697Z,17.09
2023-03-24T17:49:20.274Z,17.08
2023-03-24T17:51:22.577Z,17.07
2023-03-24T17:53:30.143Z,17.04
2023-03-24T17:55:31.769Z,17.03
2023-03-24T17:57:33.694Z,17.00
2023-03-24T17:59:36.979Z,16.97
2023-03-24T18:01:43.429Z,16.94
2023-03-24T18:03:49.552Z,16.90
2023-03-24T18:05:52.076Z,16.86
2023-03-24T18:07:53.921Z,16.83
2023-03-24T18:09:59.257Z,16.80
2023-03-24T18:12:00.918Z,16.77
2023-03-24T18:14:02.710Z,16.73
2023-03-24T18:16:19.863Z,16.69
2023-03-24T18:18:23.221Z,16.63
2023-03-24T18:20:26.165Z,16.60
2023-03-24T18:22:27.762Z,16.58
2023-03-24T18:24:29.272Z,16.55
2023-03-24T18:26:30.743Z,16.52
2023-03-24T18:28:32.459Z,16.47
2023-03-24T18:30:34.198Z,16.43
2023-03-24T18:32:38.827Z,16.40
2023-03-24T18:34:44.704Z,16.40
2023-03-24T18:36:46.442Z,16.37
2023-03-24T18:38:56.064Z,16.33
2023-03-24T18:40:59.361Z,16.31
2023-03-24T18:43:01.742Z,16.28
2023-03-24T18:45:05.434Z,16.25
2023-03-24T18:47:06.985Z,16.20
2023-03-24T18:49:13.623Z,16.18
2023-03-24T18:51:15.767Z,16.13
2023-03-24T18:53:18.761Z,16.11
2023-03-24T18:55:21.616Z,16.08
2023-03-24T18:57:23.621Z,16.05
2023-03-24T18:59:25.201Z,16.02
2023-03-24T19:01:26.862Z,15.99
2023-03-24T19:03:31.785Z,15.98
2023-03-24T19:05:34.189Z,15.95
2023-03-24T19:07:37.081Z,15.93
2023-03-24T19:09:41.442Z,15.87
2023-03-24T19:11:44.937Z,15.85
2023-03-24T19:13:50.191Z,15.83
2023-03-24T19:15:55.398Z,15.78
2023-03-24T19:18:01.723Z,15.75
2023-03-24T19:20:08.777Z,15.72
2023-03-24T19:22:10.493Z,15.68
2023-03-24T19:24:12.236Z,15.66
2023-03-24T19:26:16.476Z,15.60
2023-03-24T19:28:18.009Z,15.56
2023-03-24T19:30:20.261Z,15.52
2023-03-24T19:32:22.388Z,15.49
2023-03-24T19:34:24.844Z,15.46
2023-03-24T19:36:26.478Z,15.40
2023-03-24T19:38:29.143Z,15.37
2023-03-24T19:40:32.230Z,15.34
2023-03-24T19:42:34.478Z,15.35
2023-03-24T19:44:36.155Z,15.30
2023-03-24T19:46:38.476Z,15.28
2023-03-24T19:48:40.586Z,15.25
2023-03-24T19:50:44.216Z,15.24
2023-03-24T19:52:47.579Z,15.21
2023-03-24T19:54:49.671Z,15.19
2023-03-24T19:56:52.555Z,15.18
2023-03-24T19:58:54.046Z,15.14
2023-03-24T20:00:55.570Z,15.10
2023-03-24T20:02:57.528Z,15.04
2023-03-24T20:04:59.767Z,15.03
2023-03-24T20:07:03.279Z,15.03
2023-03-24T20:09:07.996Z,15.00
2023-03-24T20:11:11.011Z,14.98
2023-03-24T20:13:12.799Z,14.97
2023-03-24T20:15:15.233Z,14.95
2023-03-24T20:17:19.377Z,14.95
2023-03-24T20:19:21.573Z,14.92
2023-03-24T20:21:24.311Z,14.93
2023-03-24T20:23:26.116Z,14.91
2023-03-24T20:25:29.260Z,14.88
2023-03-24T20:27:31.356Z,14.86
2023-03-24T20:29:33.485Z,14.85
2023-03-24T20:31:37.256Z,14.83
2023-03-24T20:33:39.041Z,14.83
2023-03-24T20:35:40.823Z,14.81
2023-03-24T20:37:42.609Z,14.80
2023-03-24T20:39:44.402Z,14.79
2023-03-24T20:41:46.633Z,14.77
2023-03-24T20:43:48.151Z,14.76
2023-03-24T20:45:49.730Z,14.75
2023-03-24T20:47:52.148Z,14.71
2023-03-24T20:49:53.888Z,14.71
2023-03-24T20:51:56.217Z,14.68
2023-03-24T20:53:57.836Z,14.68
2023-03-24T20:56:01.018Z,14.65
2023-03-24T20:58:05.117Z,14.62
2023-03-24T21:00:16.499Z,14.61
2023-03-24T21:02:21.539Z,14.59
2023-03-24T21:04:23.202Z,14.57
2023-03-24T21:06:24.858Z,14.54
2023-03-24T21:08:29.369Z,14.52
2023-03-24T21:10:31.448Z,14.52
2023-03-24T21:12:33.956Z,14.49
2023-03-24T21:14:35.696Z,14.48
2023-03-24T21:16:37.407Z,14.46
2023-03-24T21:18:39.494Z,14.45
2023-03-24T21:20:42.290Z,14.44
2023-03-24T21:22:56.203Z,14.42
2023-03-24T21:24:59.302Z,14.40
2023-03-24T21:27:01.025Z,14.37
2023-03-24T21:29:02.507Z,14.37
2023-03-24T21:31:09.315Z,14.34
2023-03-24T21:33:14.507Z,14.32
2023-03-24T21:35:17.831Z,14.30
2023-03-24T21:37:19.681Z,14.28
2023-03-24T21:39:21.717Z,14.25
2023-03-24T21:41:23.747Z,14.23
2023-03-24T21:43:29.030Z,14.21
2023-03-24T21:45:33.429Z,14.19
2023-03-24T21:47:36.188Z,14.17
2023-03-24T21:49:37.782Z,14.15
2023-03-24T21:51:42.784Z,14.12
2023-03-24T21:53:45.200Z,14.10
2023-03-24T21:55:52.185Z,14.07
2023-03-24T21:57:54.813Z,14.05
2023-03-24T21:59:57.080Z,14.02
2023-03-24T22:01:58.567Z,14.00
2023-03-24T22:04:03.070Z,13.99
2023-03-24T22:06:05.822Z,13.98
2023-03-24T22:08:08.521Z,13.98
2023-03-24T22:10:13.466Z,13.98
2023-03-24T22:12:15.633Z,13.97
2023-03-24T22:14:20.134Z,13.95
2023-03-24T22:16:21.620Z,13.95
2023-03-24T22:18:24.993Z,13.94
2023-03-24T22:20:28.176Z,13.93
2023-03-24T22:22:30.960Z,13.92
2023-03-24T22:24:34.616Z,13.92
2023-03-24T22:26:36.368Z,13.91
2023-03-24T22:28:47.637Z,13.89
2023-03-24T22:30:49.154Z,13.85
2023-03-24T22:32:50.664Z,13.83
2023-03-24T22:34:52.332Z,13.81
2023-03-24T22:36:54.339Z,13.80
2023-03-24T22:38:56.169Z,13.81
2023-03-24T22:40:59.961Z,13.81
2023-03-24T22:43:01.421Z,13.81
2023-03-24T22:45:03.027Z,13.77
2023-03-24T22:47:04.938Z,13.80
2023-03-24T22:49:06.519Z,13.80
2023-03-24T22:53:08.992Z,13.81
2023-03-24T22:55:10.659Z,13.83
2023-03-24T22:57:12.367Z,13.84
2023-03-24T22:59:13.968Z,13.85
2023-03-24T23:01:15.777Z,13.88
2023-03-24T23:03:17.433Z,13.89
2023-03-24T23:05:19.019Z,13.88
2023-03-24T23:07:24.810Z,13.88
2023-03-24T23:09:26.729Z,13.90
2023-03-24T23:11:28.266Z,13.90
2023-03-24T23:13:30.891Z,13.89
2023-03-24T23:15:32.619Z,13.90
2023-03-24T23:17:34.562Z,13.89
2023-03-24T23:19:37.292Z,13.90
2023-03-24T23:21:41.216Z,13.90
2023-03-24T23:23:43.681Z,13.88
2023-03-24T23:25:45.673Z,13.89
2023-03-24T23:27:47.074Z,13.90
2023-03-24T23:29:48.982Z,13.90
2023-03-24T23:31:52.122Z,13.90
2023-03-24T23:33:56.522Z,13.90
2023-03-24T23:35:58.756Z,13.89
2023-03-24T23:38:02.249Z,13.88
2023-03-24T23:40:09.788Z,13.87
2023-03-24T23:42:14.441Z,13.85
2023-03-24T23:44:19.522Z,13.85
2023-03-24T23:46:22.081Z,13.85
2023-03-24T23:48:24.872Z,13.83
2023-03-24T23:50:27.528Z,13.83
2023-03-24T23:52:33.980Z,13.81
2023-03-24T23:54:35.529Z,13.81
2023-03-24T23:56:37.298Z,13.80
2023-03-24T23:58:41.085Z,13.79
